Time;durP1;ratioP1;P1;durP2;ratioP2;P2;SDS_P1;SDS_P2;PMS_P1;PMS_P2;Temp;Humidity;BMP_temperature;BMP_pressure;BME280_temperature;BME280_humidity;BME280_pressure;Samples;Min_cycle;Max_cycle;Signal;HPM_P1;HPM_P2
2020/12/14 00:01:59;;;;;;;24.50;13.00;;;;;;;7.55;86.98;98277.22;5089911;28;20496;-73
2020/12/14 00:04:24;;;;;;;24.63;13.65;;;;;;;7.47;87.05;98274.06;5085737;28;20185;-73
2020/12/14 00:06:50;;;;;;;22.92;11.90;;;;;;;7.52;86.67;98286.56;5070983;28;20040;-73
2020/12/14 00:09:16;;;;;;;25.58;14.27;;;;;;;7.48;86.75;98285.50;5069905;28;20119;-73
2020/12/14 00:11:41;;;;;;;27.80;14.00;;;;;;;7.48;87.17;98286.31;5069644;28;20123;-73
2020/12/14 00:14:07;;;;;;;21.92;12.95;;;;;;;7.46;87.27;98288.44;5084561;28;20396;-73
2020/12/14 00:16:32;;;;;;;25.70;13.20;;;;;;;7.40;87.36;98281.53;5081961;28;20034;-73
2020/12/14 00:18:57;;;;;;;25.88;13.70;;;;;;;7.47;87.03;98299.84;5076433;28;20031;-73
2020/12/14 00:21:23;;;;;;;26.20;13.80;;;;;;;7.45;86.95;98300.13;5089927;28;20031;-74
2020/12/14 00:23:51;;;;;;;22.58;13.27;;;;;;;7.43;86.63;98304.94;5089424;28;20076;-73
2020/12/14 00:26:19;;;;;;;29.30;13.10;;;;;;;7.48;86.63;98314.75;5089698;28;20081;-74
2020/12/14 00:28:48;;;;;;;23.95;11.40;;;;;;;7.49;87.31;98314.47;5089366;28;20127;-74
2020/12/14 00:31:17;;;;;;;23.00;12.13;;;;;;;7.41;87.01;98301.75;5072173;28;20097;-76
2020/12/14 00:33:43;;;;;;;24.33;12.70;;;;;;;7.55;86.78;98311.81;5075309;28;20039;-76
2020/12/14 00:36:09;;;;;;;19.77;11.85;;;;;;;7.57;87.15;98315.78;5069526;28;20033;-74
2020/12/14 00:38:35;;;;;;;24.73;12.85;;;;;;;7.60;87.02;98317.09;5069542;28;20493;-73
2020/12/14 00:41:00;;;;;;;24.00;12.63;;;;;;;7.63;86.65;98317.34;5078075;28;20054;-73
2020/12/14 00:43:26;;;;;;;24.23;11.60;;;;;;;7.58;86.73;98311.25;5089706;28;20115;-72
2020/12/14 00:45:51;;;;;;;23.83;12.27;;;;;;;7.59;86.88;98313.66;5088949;28;20032;-73
2020/12/14 00:48:16;;;;;;;20.42;10.77;;;;;;;7.62;86.27;98320.28;5069474;28;20063;-73
2020/12/14 00:50:42;;;;;;;22.15;12.02;;;;;;;7.62;86.52;98318.41;5070869;28;20500;-73
2020/12/14 00:53:07;;;;;;;29.00;11.75;;;;;;;7.59;86.31;98318.16;5070541;28;20493;-73
2020/12/14 00:55:32;;;;;;;25.30;11.32;;;;;;;7.59;87.09;98315.50;5083960;28;20024;-71
2020/12/14 00:57:58;;;;;;;19.52;10.77;;;;;;;7.59;86.83;98315.50;5070251;28;20056;-72
2020/12/14 01:00:23;;;;;;;25.98;12.25;;;;;;;7.59;86.70;98326.16;5080540;28;20051;-72
2020/12/14 01:02:49;;;;;;;24.83;11.15;;;;;;;7.61;86.76;98329.34;5089154;28;20028;-71
2020/12/14 01:05:14;;;;;;;21.95;12.90;;;;;;;7.63;86.82;98325.34;5090533;28;20374;-71
2020/12/14 01:07:40;;;;;;;24.52;11.95;;;;;;;7.57;86.30;98325.63;5090532;28;20024;-74
2020/12/14 01:10:05;;;;;;;21.20;11.85;;;;;;;7.61;86.60;98332.00;5090072;28;20024;-74
2020/12/14 01:12:31;;;;;;;19.00;11.38;;;;;;;7.61;86.83;98327.47;5089561;28;20036;-73
2020/12/14 01:14:56;;;;;;;22.40;11.70;;;;;;;7.59;86.42;98318.97;5090129;28;20119;-72
2020/12/14 01:17:21;;;;;;;20.55;11.27;;;;;;;7.59;86.03;98320.81;5089443;28;20113;-71
2020/12/14 01:19:47;;;;;;;25.50;12.55;;;;;;;7.61;85.64;98324.03;5089188;28;20024;-71
2020/12/14 01:22:12;;;;;;;18.42;10.70;;;;;;;7.55;86.51;98309.16;5075104;28;20043;-73
2020/12/14 01:24:37;;;;;;;26.35;12.30;;;;;;;7.53;86.31;98312.88;5071186;28;20546;-72
2020/12/14 01:27:03;;;;;;;19.38;11.30;;;;;;;7.55;86.16;98304.59;5073520;28;20028;-71
2020/12/14 01:29:28;;;;;;;23.33;13.27;;;;;;;7.54;86.59;98305.69;5090532;28;20404;-72
2020/12/14 01:31:53;;;;;;;22.23;10.95;;;;;;;7.54;86.30;98305.69;5073506;28;20020;-73
2020/12/14 01:34:19;;;;;;;23.30;12.45;;;;;;;7.56;86.05;98308.09;5072629;28;20483;-73
2020/12/14 01:36:48;;;;;;;25.88;13.05;;;;;;;7.52;85.97;98315.81;5073672;28;20017;-72
2020/12/14 01:39:13;;;;;;;25.00;12.93;;;;;;;7.50;86.38;98307.31;5072723;28;20029;-73
2020/12/14 01:41:39;;;;;;;25.50;13.30;;;;;;;7.43;86.43;98291.63;5074772;28;20044;-73
2020/12/14 01:44:04;;;;;;;23.35;13.45;;;;;;;7.54;86.14;98303.00;5079983;28;20056;-75
2020/12/14 01:46:31;;;;;;;26.48;13.63;;;;;;;7.53;86.09;98304.09;5093825;28;20530;-74
2020/12/14 01:49:00;;;;;;;25.38;14.10;;;;;;;7.52;86.49;98302.50;5090982;28;20032;-74
2020/12/14 01:51:27;;;;;;;24.33;12.18;;;;;;;7.52;86.57;98297.97;5072458;28;20492;-74
2020/12/14 01:53:57;;;;;;;20.17;12.07;;;;;;;7.52;86.49;98294.53;5072142;28;20081;-75
2020/12/14 01:56:23;;;;;;;21.80;12.43;;;;;;;7.45;86.43;98297.47;5081464;28;20024;-74
2020/12/14 01:58:49;;;;;;;24.17;13.52;;;;;;;7.52;86.61;98316.59;5093916;28;20035;-74
2020/12/14 02:01:15;;;;;;;24.45;13.60;;;;;;;7.50;86.90;98315.28;5076982;28;20037;-74
2020/12/14 02:03:40;;;;;;;26.67;13.70;;;;;;;7.47;86.61;98306.00;5072204;28;20032;-74
2020/12/14 02:06:06;;;;;;;28.23;13.60;;;;;;;7.46;86.83;98311.59;5072051;28;20021;-75
2020/12/14 02:08:32;;;;;;;23.73;13.70;;;;;;;7.44;87.09;98308.41;5079319;28;20032;-74
2020/12/14 02:10:58;;;;;;;26.55;14.10;;;;;;;7.47;87.29;98313.16;5092161;28;20077;-74
2020/12/14 02:13:24;;;;;;;24.08;13.68;;;;;;;7.46;87.09;98304.41;5076261;28;20059;-74
2020/12/14 02:15:50;;;;;;;25.35;13.82;;;;;;;7.47;87.03;98300.66;5071374;28;20028;-74
2020/12/14 02:18:15;;;;;;;26.23;13.93;;;;;;;7.49;86.91;98301.16;5073061;28;20020;-74
2020/12/14 02:20:41;;;;;;;23.98;13.65;;;;;;;7.52;87.02;98305.19;5073522;28;20493;-74
2020/12/14 02:23:06;;;;;;;28.02;16.38;;;;;;;7.50;86.65;98294.78;5071547;28;20028;-73
2020/12/14 02:25:31;;;;;;;34.10;17.08;;;;;;;7.47;86.52;98287.38;5071627;28;20036;-73
2020/12/14 02:27:57;;;;;;;32.45;16.40;;;;;;;7.52;86.57;98308.63;5073351;28;20033;-72
2020/12/14 02:30:22;;;;;;;29.80;16.70;;;;;;;7.51;86.78;98309.69;5072576;28;20024;-72
2020/12/14 02:32:48;;;;;;;30.40;16.02;;;;;;;7.55;86.21;98311.81;5078202;28;20119;-71
2020/12/14 02:35:13;;;;;;;35.28;18.05;;;;;;;7.43;86.57;98296.16;5093125;28;20035;-71
2020/12/14 02:37:38;;;;;;;32.53;17.90;;;;;;;7.46;86.44;98317.69;5092355;28;20054;-71
2020/12/14 02:40:04;;;;;;;33.40;17.80;;;;;;;7.26;86.91;98299.16;5092079;28;20024;-71
2020/12/14 02:42:30;;;;;;;36.75;19.42;;;;;;;7.39;86.85;98317.19;5092815;28;20407;-72
2020/12/14 02:44:55;;;;;;;36.97;18.63;;;;;;;7.42;86.93;98318.50;5092840;28;20400;-71
2020/12/14 02:47:21;;;;;;;35.78;17.30;;;;;;;7.42;86.95;98319.31;5089810;28;20028;-72
2020/12/14 02:49:46;;;;;;;38.53;18.27;;;;;;;7.42;86.88;98327.31;5072687;28;20481;-72
2020/12/14 02:52:13;;;;;;;33.95;15.57;;;;;;;7.39;87.39;98322.50;5072446;28;20112;-71
2020/12/14 02:54:41;;;;;;;33.28;18.23;;;;;;;7.42;87.14;98331.81;5071438;28;20062;-72
2020/12/14 02:57:06;;;;;;;34.15;17.80;;;;;;;7.34;86.78;98325.97;5087375;28;20102;-72
2020/12/14 02:59:31;;;;;;;28.20;15.90;;;;;;;7.37;86.78;98332.63;5092127;28;20028;-72
2020/12/14 03:01:57;;;;;;;28.58;16.67;;;;;;;7.39;86.86;98333.16;5092494;28;20059;-72
2020/12/14 03:04:23;;;;;;;26.73;15.30;;;;;;;7.42;86.77;98334.47;5076104;28;20024;-73
2020/12/14 03:06:49;;;;;;;28.13;14.90;;;;;;;7.45;86.83;98348.03;5091324;28;20035;-73
2020/12/14 03:09:17;;;;;;;32.13;17.33;;;;;;;7.43;86.65;98331.53;5089526;28;20412;-73
2020/12/14 03:11:43;;;;;;;27.55;14.98;;;;;;;7.44;86.36;98327.03;5090456;28;20490;-73
2020/12/14 03:14:09;;;;;;;29.75;15.63;;;;;;;7.49;86.36;98337.63;5090838;28;20086;-73
2020/12/14 03:16:42;;;;;;;29.98;15.00;;;;;;;7.49;86.11;98338.41;5092243;28;20028;-73
2020/12/14 03:19:08;;;;;;;28.60;14.98;;;;;;;7.44;85.65;98343.75;5076473;28;20033;-72
2020/12/14 03:21:33;;;;;;;28.85;15.63;;;;;;;7.43;85.80;98344.84;5072056;28;20393;-72
2020/12/14 03:23:59;;;;;;;25.70;13.48;;;;;;;7.36;85.93;98344.31;5071898;28;20083;-72
2020/12/14 03:26:24;;;;;;;26.88;15.70;;;;;;;7.36;85.83;98353.13;5087823;28;20501;-72
2020/12/14 03:28:49;;;;;;;24.42;14.07;;;;;;;7.39;86.09;98362.41;5081135;28;20150;-72
2020/12/14 03:31:15;;;;;;;25.20;14.35;;;;;;;7.39;86.10;98364.28;5090777;28;20031;-73
2020/12/14 03:33:40;;;;;;;26.40;14.38;;;;;;;7.40;86.25;98374.66;5074630;28;20028;-72
2020/12/14 03:36:06;;;;;;;27.08;14.25;;;;;;;7.41;85.76;98370.94;5070165;28;20374;-73
2020/12/14 03:38:31;;;;;;;31.00;15.35;;;;;;;7.44;85.37;98381.00;5085047;28;20496;-73
2020/12/14 03:41:01;;;;;;;25.10;15.48;;;;;;;7.46;85.38;98384.22;5088314;28;20165;-73
2020/12/14 03:43:27;;;;;;;27.35;13.95;;;;;;;7.44;86.04;98378.34;5090848;28;20031;-73
2020/12/14 03:45:52;;;;;;;22.67;12.73;;;;;;;7.46;85.42;98386.88;5073226;28;20033;-74
2020/12/14 03:48:17;;;;;;;24.33;14.07;;;;;;;7.40;85.74;98381.81;5071263;28;20054;-73
2020/12/14 03:50:46;;;;;;;24.52;13.35;;;;;;;7.43;85.95;98382.06;5071782;28;20029;-74
2020/12/14 03:53:13;;;;;;;19.30;12.15;;;;;;;7.45;86.00;98377.28;5069993;28;20583;-74
2020/12/14 03:55:38;;;;;;;20.98;12.82;;;;;;;7.38;85.24;98374.13;5070006;28;20028;-74
2020/12/14 03:58:03;;;;;;;21.38;12.48;;;;;;;7.41;85.55;98383.41;5077832;28;20401;-73
2020/12/14 04:00:29;;;;;;;21.17;11.55;;;;;;;7.37;85.54;98381.31;5090188;28;20499;-73
2020/12/14 04:02:54;;;;;;;17.05;9.55;;;;;;;7.37;85.39;98388.47;5089215;28;20028;-74
2020/12/14 04:05:19;;;;;;;18.42;10.50;;;;;;;7.19;85.36;98366.72;5090180;28;20126;-74
2020/12/14 04:07:45;;;;;;;18.67;10.45;;;;;;;7.34;85.57;98381.84;5091155;28;20069;-74
2020/12/14 04:10:10;;;;;;;18.73;10.80;;;;;;;7.29;85.38;98376.53;5089162;28;20024;-74
2020/12/14 04:12:36;;;;;;;18.15;10.98;;;;;;;7.36;85.42;98392.22;5082249;28;20028;-74
2020/12/14 04:15:01;;;;;;;20.67;11.52;;;;;;;7.29;85.56;98387.19;5069455;28;20052;-74
2020/12/14 04:17:26;;;;;;;18.00;10.07;;;;;;;7.24;85.32;98389.88;5069811;28;20528;-73
2020/12/14 04:19:52;;;;;;;18.95;10.40;;;;;;;7.31;85.39;98402.88;5069756;28;20021;-73
2020/12/14 04:22:17;;;;;;;16.73;10.10;;;;;;;7.28;85.32;98403.41;5070589;28;20474;-73
2020/12/14 04:24:43;;;;;;;19.52;10.25;;;;;;;7.24;85.12;98400.50;5069488;28;20045;-72
2020/12/14 04:27:08;;;;;;;20.80;10.60;;;;;;;7.26;85.37;98402.88;5070757;28;20028;-73
2020/12/14 04:29:34;;;;;;;17.75;11.07;;;;;;;7.24;85.48;98408.47;5087838;28;20051;-75
2020/12/14 04:32:00;;;;;;;18.48;10.85;;;;;;;7.23;85.38;98404.22;5089090;28;20031;-72
2020/12/14 04:34:25;;;;;;;18.75;9.00;;;;;;;7.22;84.55;98403.41;5089771;28;20028;-72
2020/12/14 04:36:51;;;;;;;19.88;10.50;;;;;;;7.19;85.21;98395.97;5090730;28;20024;-68
2020/12/14 04:39:18;;;;;;;14.13;8.95;;;;;;;7.21;85.07;98409.81;5090828;28;20465;-68
2020/12/14 04:41:43;;;;;;;20.05;8.40;;;;;;;7.17;85.00;98405.31;5087876;28;20488;-69
2020/12/14 04:44:10;;;;;;;14.93;8.43;;;;;;;7.12;85.05;98397.34;5089297;28;20040;-70
2020/12/14 04:46:36;;;;;;;13.43;7.90;;;;;;;7.07;84.41;98400.78;5090967;28;20024;-70
2020/12/14 04:49:06;;;;;;;13.13;7.72;;;;;;;7.07;84.66;98399.97;5070158;28;20035;-70
2020/12/14 04:51:33;;;;;;;12.10;7.68;;;;;;;7.10;84.82;98423.38;5070471;28;20462;-71
2020/12/14 04:54:00;;;;;;;13.00;7.55;;;;;;;7.05;84.61;98408.22;5070263;28;20095;-71
2020/12/14 04:56:27;;;;;;;12.32;7.90;;;;;;;7.09;84.86;98419.91;5069305;28;20028;-73
2020/12/14 04:58:53;;;;;;;17.35;8.93;;;;;;;7.06;84.92;98431.09;5069693;28;20467;-71
2020/12/14 05:01:18;;;;;;;14.98;7.97;;;;;;;7.01;85.68;98421.28;5074412;28;20024;-71
2020/12/14 05:03:44;;;;;;;15.85;9.02;;;;;;;7.03;85.42;98427.13;5073396;28;20039;-71
2020/12/14 05:06:09;;;;;;;18.83;10.52;;;;;;;7.02;84.95;98428.19;5074156;28;20060;-74
2020/12/14 05:08:34;;;;;;;18.45;11.45;;;;;;;7.07;85.25;98432.69;5090081;28;20066;-74
2020/12/14 05:11:00;;;;;;;14.57;9.55;;;;;;;7.08;85.13;98436.97;5092855;28;20115;-75
2020/12/14 05:13:26;;;;;;;17.73;8.70;;;;;;;7.10;85.06;98440.13;5088828;28;20040;-74
2020/12/14 05:15:52;;;;;;;18.42;9.68;;;;;;;7.07;85.29;98438.03;5072918;28;20021;-74
2020/12/14 05:18:26;;;;;;;15.52;8.57;;;;;;;7.13;84.92;98449.44;5072897;28;20111;-74
2020/12/14 05:21:04;;;;;;;14.35;8.30;;;;;;;7.14;85.40;98453.69;5074530;28;20032;-72
2020/12/14 05:23:33;;;;;;;14.88;7.90;;;;;;;7.11;84.91;98452.38;5073901;28;20044;-73
2020/12/14 05:26:17;;;;;;;11.32;7.63;;;;;;;7.06;84.92;98455.03;5075530;28;20060;-75
2020/12/14 05:28:43;;;;;;;12.52;7.13;;;;;;;7.04;85.38;98460.63;5072549;28;20086;-73
2020/12/14 05:31:18;;;;;;;15.73;7.93;;;;;;;7.03;85.08;98460.88;5076517;28;20029;-72
2020/12/14 05:33:43;;;;;;;14.45;8.15;;;;;;;7.02;85.15;98467.28;5090122;28;20096;-72
2020/12/14 05:36:15;;;;;;;11.45;7.07;;;;;;;6.99;85.19;98459.81;5081270;28;20485;-72
2020/12/14 05:38:41;;;;;;;13.93;8.48;;;;;;;7.02;85.32;98473.38;5075280;28;20029;-73
2020/12/14 05:41:06;;;;;;;12.73;7.35;;;;;;;7.00;85.11;98456.09;5105960;28;20033;-73
2020/12/14 05:43:33;;;;;;;14.60;8.18;;;;;;;7.03;85.48;98466.19;5085437;28;20043;-74
2020/12/14 05:46:12;;;;;;;13.55;8.38;;;;;;;7.00;84.83;98470.19;5088604;28;20040;-72
2020/12/14 05:48:38;;;;;;;10.52;6.25;;;;;;;6.99;84.95;98468.59;5093555;28;20062;-72
2020/12/14 05:51:05;;;;;;;16.95;7.97;;;;;;;6.92;85.58;98473.41;5082178;28;20103;-72
2020/12/14 05:53:41;;;;;;;12.90;7.35;;;;;;;6.91;85.60;98463.81;5099663;28;20036;-71
2020/12/14 05:56:08;;;;;;;11.85;6.65;;;;;;;6.96;85.05;98478.97;5079732;28;20032;-72
2020/12/14 05:58:35;;;;;;;11.43;6.50;;;;;;;6.88;85.36;98473.13;5095271;28;20059;-72
2020/12/14 06:01:06;;;;;;;15.65;7.43;;;;;;;6.94;85.54;98479.22;5093693;28;20032;-72
2020/12/14 06:03:33;;;;;;;9.25;5.95;;;;;;;6.78;85.96;98464.34;5093766;28;20032;-71
2020/12/14 06:06:01;;;;;;;13.27;6.75;;;;;;;6.89;85.55;98484.53;5093020;28;20491;-72
2020/12/14 06:08:44;;;;;;;12.80;7.18;;;;;;;6.92;85.91;98489.34;5093793;28;20067;-72
2020/12/14 06:11:11;;;;;;;12.65;7.05;;;;;;;6.92;85.58;98489.34;5092328;28;20024;-72
2020/12/14 06:13:57;;;;;;;14.43;7.57;;;;;;;6.88;85.16;98494.38;5075928;28;20123;-72
2020/12/14 06:16:25;;;;;;;14.27;7.25;;;;;;;6.85;85.92;98497.56;5084958;28;20098;-73
2020/12/14 06:18:51;;;;;;;;;;;;;;;6.88;85.14;98496.22;5092735;28;20115;-73
2020/12/14 06:21:23;;;;;;;10.52;5.90;;;;;;;6.86;85.94;98501.81;5093326;28;20414;-74
2020/12/14 06:23:50;;;;;;;12.27;6.32;;;;;;;6.83;85.44;98502.34;5090343;28;20139;-73
2020/12/14 06:26:16;;;;;;;12.80;7.93;;;;;;;6.81;85.72;98501.81;5079760;28;20484;-73
2020/12/14 06:28:49;;;;;;;12.18;7.18;;;;;;;6.81;85.65;98495.69;5091633;28;20035;-73
2020/12/14 06:31:33;;;;;;;10.23;6.90;;;;;;;6.75;85.65;98486.94;5093095;28;20024;-73
2020/12/14 06:34:02;;;;;;;10.77;6.22;;;;;;;6.78;85.45;98496.25;5078122;28;20037;-73
2020/12/14 06:36:36;;;;;;;8.18;4.65;;;;;;;6.69;85.47;98488.00;5071614;28;20511;-72
2020/12/14 06:39:02;;;;;;;7.97;5.05;;;;;;;6.80;85.74;98502.88;5072753;28;20025;-72
2020/12/14 06:41:30;;;;;;;9.98;5.80;;;;;;;6.78;85.30;98510.31;5079530;28;20039;-73
2020/12/14 06:44:13;;;;;;;9.98;5.40;;;;;;;6.82;85.49;98505.28;5081431;28;20035;-71
2020/12/14 06:46:38;;;;;;;9.60;5.90;;;;;;;6.64;85.56;98488.78;5090727;28;20036;-70
2020/12/14 06:49:08;;;;;;;11.25;6.30;;;;;;;6.73;85.63;98502.34;5072825;28;20427;-70
2020/12/14 06:51:53;;;;;;;15.68;9.38;;;;;;;6.77;86.07;98514.03;5077437;28;20032;-70
2020/12/14 06:54:41;;;;;;;8.32;5.47;;;;;;;6.76;85.96;98512.44;5071126;28;20029;-70
2020/12/14 06:57:11;;;;;;;9.77;5.38;;;;;;;6.73;85.84;98513.75;5075185;28;20035;-70
2020/12/14 06:59:37;;;;;;;69.35;37.78;;;;;;;6.70;86.40;98514.31;5086776;28;20038;-71
2020/12/14 07:02:11;;;;;;;10.88;6.65;;;;;;;6.72;85.69;98514.03;5086978;28;20036;-71
2020/12/14 07:04:39;;;;;;;15.93;10.02;;;;;;;6.73;86.35;98528.91;5092730;28;20491;-71
2020/12/14 07:07:04;;;;;;;17.85;9.65;;;;;;;6.76;85.95;98527.59;5082342;28;20032;-71
2020/12/14 07:09:32;;;;;;;14.93;9.15;;;;;;;6.73;86.10;98531.56;5092270;28;20034;-70
2020/12/14 07:12:10;;;;;;;12.95;5.57;;;;;;;6.75;85.96;98534.78;5091257;28;20024;-70
2020/12/14 07:14:50;;;;;;;6.57;4.37;;;;;;;6.70;85.36;98530.25;5087719;28;20094;-72
2020/12/14 07:17:20;;;;;;;7.60;4.80;;;;;;;6.70;86.29;98538.22;5089227;28;20309;-72
2020/12/14 07:19:47;;;;;;;8.70;4.50;;;;;;;6.69;86.55;98541.94;5087081;28;20102;-74
2020/12/14 07:22:20;;;;;;;5.90;4.22;;;;;;;6.70;86.71;98546.19;5093632;28;20035;-74
2020/12/14 07:25:03;;;;;;;7.32;4.55;;;;;;;6.63;86.42;98536.84;5091631;28;20051;-73
2020/12/14 07:27:32;;;;;;;7.72;3.95;;;;;;;6.68;86.72;98535.00;5100708;28;20111;-73
2020/12/14 07:30:04;;;;;;;8.57;4.20;;;;;;;6.69;86.25;98543.78;5091705;28;20032;-73
2020/12/14 07:32:30;;;;;;;5.63;3.60;;;;;;;6.66;86.63;98534.47;5086708;28;20036;-73
2020/12/14 07:34:55;;;;;;;6.22;4.07;;;;;;;6.59;86.19;98530.47;5108542;28;20032;-72
2020/12/14 07:37:22;;;;;;;6.22;3.22;;;;;;;6.75;86.68;98545.41;5112024;28;20024;-72
2020/12/14 07:39:48;;;;;;;6.35;4.05;;;;;;;6.74;86.58;98543.81;5112529;28;20053;-73
2020/12/14 07:42:23;;;;;;;4.70;3.58;;;;;;;6.77;86.16;98553.91;5111909;28;20499;-71
2020/12/14 07:44:49;;;;;;;6.85;3.55;;;;;;;6.76;86.65;98549.63;5102414;28;20043;-72
2020/12/14 07:47:21;;;;;;;4.47;2.35;;;;;;;6.76;86.22;98552.28;5091406;28;20028;-71
2020/12/14 07:49:47;;;;;;;9.07;2.97;;;;;;;6.78;86.20;98555.50;5073569;28;20029;-72
2020/12/14 07:52:28;;;;;;;3.67;2.55;;;;;;;6.82;86.40;98559.25;5090483;28;20028;-72
2020/12/14 07:55:00;;;;;;;5.93;3.47;;;;;;;6.75;85.83;98561.34;5071208;28;20028;-71
2020/12/14 07:57:31;;;;;;;7.43;2.65;;;;;;;6.76;85.59;98565.56;5071192;28;20063;-72
2020/12/14 07:59:56;;;;;;;5.82;3.28;;;;;;;6.79;85.72;98580.22;5081847;28;20424;-71
2020/12/14 08:02:23;;;;;;;4.82;2.72;;;;;;;6.75;86.02;98577.28;5081114;28;20024;-74
2020/12/14 08:04:48;;;;;;;3.97;2.38;;;;;;;6.76;85.95;98584.19;5071520;28;20040;-72
2020/12/14 08:07:16;;;;;;;4.60;3.08;;;;;;;6.77;86.01;98585.00;5069617;28;20035;-74
2020/12/14 08:09:45;;;;;;;7.68;3.92;;;;;;;6.72;85.26;98577.81;5071171;28;20055;-72
2020/12/14 08:12:12;;;;;;;5.03;2.83;;;;;;;6.78;85.30;98579.41;5083933;28;20039;-73
2020/12/14 08:14:38;;;;;;;5.53;3.40;;;;;;;6.76;85.28;98575.41;5091144;28;20026;-76
2020/12/14 08:17:09;;;;;;;4.63;2.67;;;;;;;6.76;85.36;98573.56;5089841;28;20027;-76
2020/12/14 08:19:38;;;;;;;5.95;3.03;;;;;;;6.77;85.43;98580.47;5069724;28;20020;-76
2020/12/14 08:22:08;;;;;;;6.97;3.85;;;;;;;6.60;84.71;98555.97;5070450;28;20504;-77
2020/12/14 08:24:34;;;;;;;8.57;3.97;;;;;;;6.81;84.96;98589.53;5069618;28;20121;-76
2020/12/14 08:27:08;;;;;;;4.68;3.13;;;;;;;6.80;85.48;98595.09;5069705;28;20086;-77
2020/12/14 08:29:35;;;;;;;13.75;5.60;;;;;;;6.81;85.23;98594.84;5069539;28;20085;-77
2020/12/14 08:32:01;;;;;;;4.60;3.30;;;;;;;6.79;85.42;98594.31;5069435;28;20036;-76
2020/12/14 08:34:32;;;;;;;4.47;3.03;;;;;;;6.84;84.97;98602.28;5068567;28;20043;-77
2020/12/14 08:36:58;;;;;;;5.40;3.50;;;;;;;6.84;85.15;98596.19;5069101;28;20024;-76
2020/12/14 08:39:24;;;;;;;3.55;3.03;;;;;;;6.83;85.17;98590.03;5069332;28;20036;-76
2020/12/14 08:42:07;;;;;;;5.47;3.67;;;;;;;6.83;85.14;98594.59;5069567;28;20036;-76
2020/12/14 08:44:33;;;;;;;5.93;3.25;;;;;;;6.82;84.86;98593.78;5069865;28;20036;-77
2020/12/14 08:47:00;;;;;;;4.53;3.08;;;;;;;6.84;84.98;98593.53;5081905;28;20040;-76
2020/12/14 08:49:27;;;;;;;5.53;2.97;;;;;;;6.82;84.54;98595.63;5087816;28;20040;-76
2020/12/14 08:51:52;;;;;;;4.45;3.08;;;;;;;6.82;84.88;98592.97;5078504;28;20633;-76
2020/12/14 08:54:20;;;;;;;6.93;3.88;;;;;;;6.78;84.45;98582.06;5109559;28;20028;-76
2020/12/14 08:56:46;;;;;;;4.68;3.05;;;;;;;6.79;84.76;98585.53;5109460;28;20027;-75
2020/12/14 08:59:14;;;;;;;6.28;3.20;;;;;;;6.78;84.80;98587.38;5109517;28;20020;-76
2020/12/14 09:01:53;;;;;;;4.53;3.40;;;;;;;6.78;84.77;98583.94;5105791;28;20032;-77
2020/12/14 09:04:26;;;;;;;6.30;3.70;;;;;;;6.81;85.11;98592.19;5081921;28;20051;-79
2020/12/14 09:06:51;;;;;;;4.47;2.80;;;;;;;6.82;84.84;98590.31;5101809;28;20036;-78
2020/12/14 09:09:17;;;;;;;7.75;3.72;;;;;;;6.80;84.50;98590.59;5083871;28;20038;-76
2020/12/14 09:11:45;;;;;;;5.47;3.13;;;;;;;6.82;84.57;98595.63;5090864;28;20032;-77
2020/12/14 09:14:19;;;;;;;5.88;3.60;;;;;;;6.75;83.94;98582.59;5098928;28;20032;-76
2020/12/14 09:16:50;;;;;;;6.18;3.78;;;;;;;6.76;84.44;98586.84;5076927;28;20028;-78
2020/12/14 09:19:22;;;;;;;5.03;2.92;;;;;;;6.75;84.67;98571.16;5067084;28;20489;-76
2020/12/14 09:21:47;;;;;;;4.63;3.08;;;;;;;6.60;84.27;98559.44;5083258;28;20034;-77
2020/12/14 09:24:16;;;;;;;6.28;3.70;;;;;;;6.76;84.78;98570.91;5100929;28;20123;-75
2020/12/14 09:26:43;;;;;;;6.32;3.75;;;;;;;6.75;85.10;98576.47;5090303;28;20085;-75
2020/12/14 09:29:09;;;;;;;5.65;3.80;;;;;;;6.75;84.85;98574.63;5093581;28;20093;-75
2020/12/14 09:31:35;;;;;;;6.00;4.18;;;;;;;6.76;84.81;98572.75;5080914;28;20032;-75
2020/12/14 09:34:01;;;;;;;5.45;3.25;;;;;;;6.75;85.22;98565.84;5067698;28;20114;-74
2020/12/14 09:36:26;;;;;;;4.53;3.15;;;;;;;6.70;85.11;98553.34;5084903;28;20116;-74
2020/12/14 09:38:54;;;;;;;5.20;3.58;;;;;;;6.69;84.89;98559.75;5088017;28;20027;-74
2020/12/14 09:41:21;;;;;;;7.53;3.42;;;;;;;6.66;85.13;98557.59;5088299;28;20639;-76
2020/12/14 09:43:47;;;;;;;7.88;3.33;;;;;;;6.68;85.59;98564.25;5087706;28;20075;-75
2020/12/14 09:46:12;;;;;;;4.90;3.42;;;;;;;6.69;85.00;98560.53;5079737;28;20059;-75
2020/12/14 09:48:40;;;;;;;5.50;3.65;;;;;;;6.68;85.28;98556.28;5090514;28;20235;-76
2020/12/14 09:51:06;;;;;;;6.85;3.42;;;;;;;6.69;85.48;98565.06;5088235;28;20028;-76
2020/12/14 09:53:32;;;;;;;6.78;4.03;;;;;;;6.73;85.77;98558.16;5072531;28;20028;-75
2020/12/14 09:55:58;;;;;;;5.60;3.78;;;;;;;6.70;85.66;98562.13;5073933;28;20497;-75
2020/12/14 09:58:23;;;;;;;5.32;4.43;;;;;;;6.74;85.78;98549.13;5079434;28;20083;-75
2020/12/14 10:00:49;;;;;;;5.38;3.20;;;;;;;6.75;85.51;98555.22;5092616;28;20034;-75
2020/12/14 10:03:14;;;;;;;5.05;3.33;;;;;;;6.73;85.78;98550.97;5092274;28;20032;-76
2020/12/14 10:05:47;;;;;;;6.18;3.28;;;;;;;6.74;85.77;98549.13;5092573;28;20023;-75
2020/12/14 10:08:15;;;;;;;5.63;3.45;;;;;;;6.75;85.67;98550.72;5092472;28;20036;-74
2020/12/14 10:10:42;;;;;;;6.53;4.03;;;;;;;6.69;84.81;98549.91;5092732;28;20024;-75
2020/12/14 10:13:08;;;;;;;7.15;4.15;;;;;;;6.68;85.03;98555.47;5091666;28;20028;-75
2020/12/14 10:15:33;;;;;;;6.13;3.25;;;;;;;6.67;85.33;98567.16;5091381;28;20042;-75
2020/12/14 10:17:59;;;;;;;3.60;2.97;;;;;;;6.64;85.67;98565.03;5087547;28;20055;-75
2020/12/14 10:20:25;;;;;;;4.38;3.53;;;;;;;6.66;85.69;98561.03;5092100;28;20542;-74
2020/12/14 10:22:50;;;;;;;6.68;4.07;;;;;;;6.67;85.50;98548.56;5093935;28;20043;-76
2020/12/14 10:25:16;;;;;;;6.10;3.75;;;;;;;6.63;85.67;98558.09;5112207;28;20504;-74
2020/12/14 10:27:41;;;;;;;6.18;3.35;;;;;;;6.62;85.66;98559.19;5088179;28;20472;-73
2020/12/14 10:30:07;;;;;;;6.38;4.10;;;;;;;6.66;85.69;98565.56;5091919;28;20477;-78
2020/12/14 10:32:33;;;;;;;5.93;4.70;;;;;;;6.66;85.91;98560.25;5081893;28;20115;-75
2020/12/14 10:34:58;;;;;;;6.28;4.47;;;;;;;6.66;85.89;98554.94;5093088;28;20131;-75
2020/12/14 10:37:25;;;;;;;5.53;3.88;;;;;;;6.61;85.88;98542.44;5112020;28;20479;-75
2020/12/14 10:39:50;;;;;;;5.63;3.63;;;;;;;6.65;85.64;98553.34;5112337;28;20507;-74
2020/12/14 10:42:15;;;;;;;5.20;3.75;;;;;;;6.64;85.28;98549.91;5111995;28;20074;-74
2020/12/14 10:44:41;;;;;;;5.00;3.25;;;;;;;6.69;85.50;98565.84;5109121;28;20483;-75
2020/12/14 10:47:07;;;;;;;5.40;3.42;;;;;;;6.71;85.28;98563.72;5093297;28;20480;-75
2020/12/14 10:49:33;;;;;;;6.75;3.53;;;;;;;6.71;84.92;98560.25;5091709;28;20024;-75
2020/12/14 10:52:02;;;;;;;5.75;4.20;;;;;;;6.72;85.21;98567.19;5091690;28;20590;-75
2020/12/14 10:54:27;;;;;;;;;;;;;;;6.67;84.76;98559.19;5090138;28;20117;-75
2020/12/14 10:56:53;;;;;;;5.82;3.75;;;;;;;6.68;85.67;98566.13;5091136;28;19959;-75
2020/12/14 10:59:18;;;;;;;6.90;3.70;;;;;;;6.67;85.22;98572.47;5089949;28;20610;-75
2020/12/14 11:01:49;;;;;;;4.18;3.10;;;;;;;6.66;85.32;98565.56;5087105;28;20522;-75
2020/12/14 11:04:14;;;;;;;5.78;3.67;;;;;;;6.65;85.65;98564.78;5090799;28;20123;-75
2020/12/14 11:06:40;;;;;;;6.13;3.15;;;;;;;6.67;85.50;98564.50;5091355;28;20119;-75
2020/12/14 11:09:05;;;;;;;5.15;3.40;;;;;;;6.70;85.57;98566.63;5091033;28;20460;-74
2020/12/14 11:11:32;;;;;;;4.80;3.60;;;;;;;6.68;85.60;98558.94;5076945;28;20405;-77
2020/12/14 11:14:01;;;;;;;6.75;3.78;;;;;;;6.74;84.44;98567.72;5091060;28;20032;-75
2020/12/14 11:16:28;;;;;;;5.18;3.47;;;;;;;6.72;85.54;98567.97;5093948;28;20538;-75
2020/12/14 11:18:54;;;;;;;5.35;3.50;;;;;;;6.77;85.46;98572.50;5100706;28;20031;-75
2020/12/14 11:21:21;;;;;;;4.82;3.20;;;;;;;6.73;84.95;98556.28;5099151;28;20076;-77
2020/12/14 11:23:46;;;;;;;5.47;3.30;;;;;;;6.74;84.83;98557.09;5110969;28;20085;-78
2020/12/14 11:26:12;;;;;;;5.40;2.97;;;;;;;6.82;84.95;98575.19;5109975;28;20024;-78
2020/12/14 11:28:37;;;;;;;5.00;3.15;;;;;;;6.82;84.65;98574.38;5089282;28;20024;-76
2020/12/14 11:31:04;;;;;;;5.35;3.30;;;;;;;6.80;84.84;98565.84;5089930;28;20542;-76
2020/12/14 11:33:29;;;;;;;5.18;2.60;;;;;;;6.81;84.43;98565.63;5090805;28;20039;-76
2020/12/14 11:35:55;;;;;;;4.85;3.08;;;;;;;6.85;85.17;98574.66;5090683;28;20036;-79